EZY42JP LFRB-EGKK
Flight info
| Callsign | EZY42JP |
|---|---|
| Flight time | 0h 48m |
| Altitude | 28000 |
| Route | NORBU DCT NOZHU DCT OTMET |
| Aircraft | A320/M-SDE3FGHIRWY/LB1 |
Departure
| Time | 2026-04-16 21:16 |
|---|---|
| Airport | Brest Bretagne airport (LFRB) |
Arrival
| Time | 2026-04-16 22:04 |
|---|---|
| Airport | London Gatwick Airport (EGKK) |
| Time | Latitude | Longitude | Altitude | Speed | Heading |
|---|---|---|---|---|---|
| 2026-04-16 20:42 | 48.44419 | -4.42103 | 332 ft | 0 kts | 191° |
| 2026-04-16 21:08 | 48.44438 | -4.42097 | 327 ft | 4 kts | 191° |
| 2026-04-16 21:09 | 48.44465 | -4.42089 | 330 ft | 4 kts | 192° |
| 2026-04-16 21:09 | 48.44490 | -4.42079 | 331 ft | 4 kts | 211° |
| 2026-04-16 21:09 | 48.44507 | -4.42052 | 328 ft | 4 kts | 250° |
| 2026-04-16 21:09 | 48.44513 | -4.42022 | 328 ft | 0 kts | 251° |
| 2026-04-16 21:12 | 48.44512 | -4.42024 | 328 ft | 2 kts | 251° |
| 2026-04-16 21:13 | 48.44562 | -4.42103 | 332 ft | 20 kts | 347° |
| 2026-04-16 21:13 | 48.44690 | -4.42148 | 331 ft | 18 kts | 14° |
| 2026-04-16 21:13 | 48.44756 | -4.41984 | 334 ft | 20 kts | 71° |
| 2026-04-16 21:13 | 48.44800 | -4.41791 | 338 ft | 20 kts | 72° |
| 2026-04-16 21:14 | 48.44844 | -4.41592 | 332 ft | 20 kts | 71° |
| 2026-04-16 21:14 | 48.44889 | -4.41388 | 327 ft | 21 kts | 71° |
| 2026-04-16 21:14 | 48.44944 | -4.41145 | 323 ft | 27 kts | 71° |
| 2026-04-16 21:14 | 48.45008 | -4.40862 | 320 ft | 29 kts | 70° |
| 2026-04-16 21:15 | 48.45063 | -4.40706 | 324 ft | 9 kts | 79° |
| 2026-04-16 21:15 | 48.45050 | -4.40704 | 324 ft | 5 kts | 243° |
| 2026-04-16 21:15 | 48.44961 | -4.41075 | 321 ft | 74 kts | 250° |
| 2026-04-16 21:15 | 48.44728 | -4.42099 | 327 ft | 132 kts | 251° |
| 2026-04-16 21:16 | 48.44379 | -4.43640 | 556 ft | 160 kts | 248° |
| 2026-04-16 21:16 | 48.44026 | -4.45212 | 1373 ft | 157 kts | 246° |
| 2026-04-16 21:16 | 48.43662 | -4.46805 | 2010 ft | 169 kts | 248° |
| 2026-04-16 21:16 | 48.43252 | -4.48589 | 2338 ft | 192 kts | 248° |
| 2026-04-16 21:17 | 48.42788 | -4.50614 | 2778 ft | 217 kts | 248° |
| 2026-04-16 21:17 | 48.42416 | -4.52928 | 3366 ft | 240 kts | 268° |
| 2026-04-16 21:17 | 48.43001 | -4.55354 | 4278 ft | 258 kts | 304° |
| 2026-04-16 21:17 | 48.44519 | -4.56900 | 5200 ft | 276 kts | 340° |
| 2026-04-16 21:18 | 48.46473 | -4.56974 | 6137 ft | 289 kts | 9° |
| 2026-04-16 21:18 | 48.48404 | -4.56109 | 7073 ft | 293 kts | 16° |
| 2026-04-16 21:18 | 48.50356 | -4.55110 | 7948 ft | 297 kts | 16° |
| 2026-04-16 21:18 | 48.52324 | -4.54100 | 8797 ft | 301 kts | 15° |
| 2026-04-16 21:19 | 48.54333 | -4.53074 | 9643 ft | 306 kts | 14° |
| 2026-04-16 21:19 | 48.56412 | -4.52295 | 10425 ft | 311 kts | 6° |
| 2026-04-16 21:19 | 48.58625 | -4.51757 | 10735 ft | 334 kts | 5° |
| 2026-04-16 21:19 | 48.60959 | -4.50922 | 11129 ft | 355 kts | 15° |
| 2026-04-16 21:20 | 48.63296 | -4.49569 | 11811 ft | 362 kts | 19° |
| 2026-04-16 21:20 | 48.65638 | -4.48097 | 12551 ft | 368 kts | 20° |
| 2026-04-16 21:20 | 48.68039 | -4.46515 | 13297 ft | 373 kts | 21° |
| 2026-04-16 21:20 | 48.70395 | -4.44922 | 14000 ft | 378 kts | 21° |
| 2026-04-16 21:21 | 48.72807 | -4.43276 | 14635 ft | 382 kts | 21° |
| 2026-04-16 21:21 | 48.75245 | -4.41613 | 15278 ft | 386 kts | 21° |
| 2026-04-16 21:21 | 48.77742 | -4.39910 | 15908 ft | 390 kts | 21° |
| 2026-04-16 21:21 | 48.80226 | -4.38218 | 16538 ft | 394 kts | 21° |
| 2026-04-16 21:22 | 48.82747 | -4.36504 | 17144 ft | 399 kts | 21° |
| 2026-04-16 21:22 | 48.85298 | -4.34772 | 17769 ft | 403 kts | 21° |
| 2026-04-16 21:22 | 48.87876 | -4.33023 | 18376 ft | 407 kts | 21° |
| 2026-04-16 21:22 | 48.90473 | -4.31259 | 18909 ft | 411 kts | 21° |
| 2026-04-16 21:23 | 48.93102 | -4.29467 | 19471 ft | 414 kts | 21° |
| 2026-04-16 21:23 | 48.95739 | -4.27665 | 20022 ft | 417 kts | 21° |
| 2026-04-16 21:23 | 48.98391 | -4.25855 | 20577 ft | 420 kts | 21° |
| 2026-04-16 21:23 | 49.01067 | -4.24025 | 21135 ft | 422 kts | 21° |
| 2026-04-16 21:24 | 49.03751 | -4.22185 | 21623 ft | 426 kts | 21° |
| 2026-04-16 21:24 | 49.06469 | -4.20323 | 22151 ft | 429 kts | 21° |
| 2026-04-16 21:24 | 49.09194 | -4.18453 | 22671 ft | 431 kts | 21° |
| 2026-04-16 21:24 | 49.11947 | -4.16559 | 23171 ft | 434 kts | 21° |
| 2026-04-16 21:25 | 49.14715 | -4.14648 | 23682 ft | 437 kts | 21° |
| 2026-04-16 21:25 | 49.17497 | -4.12726 | 24110 ft | 440 kts | 21° |
| 2026-04-16 21:25 | 49.20289 | -4.10798 | 24519 ft | 442 kts | 20° |
| 2026-04-16 21:25 | 49.23104 | -4.08857 | 24928 ft | 444 kts | 20° |
| 2026-04-16 21:26 | 49.25933 | -4.06901 | 25299 ft | 448 kts | 20° |
| 2026-04-16 21:26 | 49.28787 | -4.04924 | 25666 ft | 452 kts | 20° |
| 2026-04-16 21:26 | 49.31653 | -4.02939 | 26053 ft | 454 kts | 20° |
| 2026-04-16 21:26 | 49.34543 | -4.00934 | 26437 ft | 456 kts | 20° |
| 2026-04-16 21:27 | 49.37435 | -3.98923 | 26856 ft | 457 kts | 20° |
| 2026-04-16 21:27 | 49.40334 | -3.96900 | 27272 ft | 458 kts | 20° |
| 2026-04-16 21:27 | 49.42297 | -3.95529 | 27536 ft | 460 kts | 20° |
| 2026-04-16 21:27 | 49.45211 | -3.93493 | 27910 ft | 462 kts | 20° |
| 2026-04-16 21:28 | 49.48144 | -3.91443 | 28155 ft | 464 kts | 20° |
| 2026-04-16 21:28 | 49.51040 | -3.89413 | 28187 ft | 451 kts | 20° |
| 2026-04-16 21:28 | 49.53874 | -3.87421 | 28194 ft | 445 kts | 20° |
| 2026-04-16 21:29 | 49.59479 | -3.83491 | 28182 ft | 442 kts | 20° |
| 2026-04-16 21:29 | 49.65082 | -3.79564 | 28177 ft | 442 kts | 20° |
| 2026-04-16 21:30 | 49.70532 | -3.75131 | 28180 ft | 449 kts | 32° |
| 2026-04-16 21:30 | 49.75450 | -3.69090 | 28182 ft | 452 kts | 35° |
| 2026-04-16 21:31 | 49.80367 | -3.63006 | 28180 ft | 452 kts | 35° |
| 2026-04-16 21:31 | 49.85275 | -3.56924 | 28186 ft | 451 kts | 36° |
| 2026-04-16 21:32 | 49.90161 | -3.50852 | 28196 ft | 449 kts | 36° |
| 2026-04-16 21:32 | 49.95025 | -3.44783 | 28186 ft | 449 kts | 36° |
| 2026-04-16 21:33 | 49.99925 | -3.38643 | 28175 ft | 449 kts | 36° |
| 2026-04-16 21:33 | 50.04796 | -3.32539 | 28165 ft | 449 kts | 36° |
| 2026-04-16 21:34 | 50.09655 | -3.26423 | 28166 ft | 449 kts | 36° |
| 2026-04-16 21:34 | 50.14521 | -3.20288 | 28139 ft | 449 kts | 36° |
| 2026-04-16 21:35 | 50.19377 | -3.14154 | 28165 ft | 449 kts | 36° |
| 2026-04-16 21:35 | 50.24231 | -3.08003 | 28165 ft | 450 kts | 36° |
| 2026-04-16 21:36 | 50.29085 | -3.01830 | 28165 ft | 450 kts | 36° |
| 2026-04-16 21:36 | 50.33937 | -2.95636 | 28160 ft | 450 kts | 36° |
| 2026-04-16 21:37 | 50.38784 | -2.89444 | 28183 ft | 450 kts | 36° |
| 2026-04-16 21:37 | 50.43644 | -2.83233 | 28165 ft | 451 kts | 36° |
| 2026-04-16 21:38 | 50.48494 | -2.76997 | 28139 ft | 451 kts | 37° |
| 2026-04-16 21:38 | 50.53340 | -2.70742 | 28157 ft | 450 kts | 37° |
| 2026-04-16 21:39 | 50.58183 | -2.64480 | 28160 ft | 450 kts | 37° |
| 2026-04-16 21:39 | 50.62991 | -2.58134 | 28191 ft | 451 kts | 43° |
| 2026-04-16 21:39 | 50.65047 | -2.54292 | 27681 ft | 453 kts | 56° |
| 2026-04-16 21:40 | 50.66508 | -2.49896 | 27110 ft | 449 kts | 70° |
| 2026-04-16 21:40 | 50.67361 | -2.45217 | 26823 ft | 440 kts | 82° |
| 2026-04-16 21:40 | 50.67673 | -2.40473 | 26537 ft | 432 kts | 93° |
| 2026-04-16 21:40 | 50.67539 | -2.35767 | 26238 ft | 428 kts | 97° |
| 2026-04-16 21:41 | 50.67352 | -2.31089 | 25926 ft | 425 kts | 97° |
| 2026-04-16 21:41 | 50.67157 | -2.26438 | 25651 ft | 423 kts | 97° |
| 2026-04-16 21:41 | 50.66958 | -2.21831 | 25365 ft | 421 kts | 98° |
| 2026-04-16 21:41 | 50.66757 | -2.17237 | 25081 ft | 418 kts | 98° |
| 2026-04-16 21:42 | 50.66554 | -2.12682 | 24799 ft | 416 kts | 98° |
| 2026-04-16 21:42 | 50.66346 | -2.08137 | 24504 ft | 414 kts | 98° |
| 2026-04-16 21:42 | 50.66138 | -2.03621 | 24227 ft | 412 kts | 97° |
| 2026-04-16 21:42 | 50.66127 | -1.99093 | 23947 ft | 413 kts | 92° |
| 2026-04-16 21:43 | 50.66188 | -1.94584 | 23652 ft | 411 kts | 92° |
| 2026-04-16 21:43 | 50.66228 | -1.91610 | 23456 ft | 409 kts | 92° |
| 2026-04-16 21:43 | 50.66293 | -1.86597 | 23148 ft | 407 kts | 92° |
| 2026-04-16 21:43 | 50.66346 | -1.82144 | 22871 ft | 405 kts | 93° |
| 2026-04-16 21:44 | 50.66395 | -1.77709 | 22599 ft | 403 kts | 93° |
| 2026-04-16 21:44 | 50.66442 | -1.73305 | 22334 ft | 401 kts | 93° |
| 2026-04-16 21:44 | 50.66487 | -1.68929 | 22057 ft | 399 kts | 93° |
| 2026-04-16 21:44 | 50.66528 | -1.64578 | 21791 ft | 397 kts | 93° |
| 2026-04-16 21:45 | 50.66566 | -1.60235 | 21529 ft | 395 kts | 93° |
| 2026-04-16 21:45 | 50.66602 | -1.55898 | 21257 ft | 393 kts | 93° |
| 2026-04-16 21:45 | 50.66619 | -1.51600 | 20884 ft | 392 kts | 94° |
| 2026-04-16 21:45 | 50.66586 | -1.47319 | 20440 ft | 389 kts | 95° |
| 2026-04-16 21:46 | 50.66520 | -1.43054 | 20015 ft | 386 kts | 96° |
| 2026-04-16 21:46 | 50.66442 | -1.38841 | 19575 ft | 384 kts | 96° |
| 2026-04-16 21:46 | 50.66547 | -1.34638 | 19173 ft | 385 kts | 85° |
| 2026-04-16 21:46 | 50.67156 | -1.30529 | 18764 ft | 386 kts | 73° |
| 2026-04-16 21:47 | 50.68146 | -1.26595 | 18295 ft | 385 kts | 70° |
| 2026-04-16 21:47 | 50.69158 | -1.22682 | 17872 ft | 382 kts | 70° |
| 2026-04-16 21:47 | 50.70156 | -1.18811 | 17448 ft | 379 kts | 70° |
| 2026-04-16 21:47 | 50.71142 | -1.14966 | 17046 ft | 376 kts | 70° |
| 2026-04-16 21:48 | 50.72098 | -1.11221 | 16645 ft | 373 kts | 70° |
| 2026-04-16 21:48 | 50.73083 | -1.07351 | 16232 ft | 371 kts | 70° |
| 2026-04-16 21:48 | 50.74040 | -1.03571 | 15834 ft | 368 kts | 70° |
| 2026-04-16 21:48 | 50.74987 | -0.99823 | 15428 ft | 366 kts | 70° |
| 2026-04-16 21:49 | 50.75927 | -0.96097 | 15028 ft | 365 kts | 70° |
| 2026-04-16 21:49 | 50.76874 | -0.92341 | 14618 ft | 363 kts | 70° |
| 2026-04-16 21:49 | 50.77803 | -0.88650 | 14234 ft | 360 kts | 70° |
| 2026-04-16 21:49 | 50.78725 | -0.84975 | 13830 ft | 358 kts | 70° |
| 2026-04-16 21:50 | 50.79628 | -0.81376 | 13427 ft | 354 kts | 70° |
| 2026-04-16 21:50 | 50.80522 | -0.77824 | 13197 ft | 334 kts | 70° |
| 2026-04-16 21:50 | 50.81235 | -0.74396 | 12812 ft | 321 kts | 81° |
| 2026-04-16 21:50 | 50.81637 | -0.70930 | 12560 ft | 320 kts | 83° |
| 2026-04-16 21:51 | 50.82024 | -0.67579 | 12251 ft | 318 kts | 82° |
| 2026-04-16 21:51 | 50.82425 | -0.64162 | 11858 ft | 316 kts | 82° |
| 2026-04-16 21:51 | 50.82827 | -0.60741 | 11464 ft | 315 kts | 82° |
| 2026-04-16 21:51 | 50.83229 | -0.57309 | 11066 ft | 311 kts | 82° |
| 2026-04-16 21:52 | 50.83612 | -0.54008 | 10671 ft | 308 kts | 82° |
| 2026-04-16 21:52 | 50.83996 | -0.50686 | 10297 ft | 306 kts | 82° |
| 2026-04-16 21:52 | 50.84376 | -0.47384 | 9878 ft | 304 kts | 82° |
| 2026-04-16 21:52 | 50.84754 | -0.44103 | 9481 ft | 302 kts | 82° |
| 2026-04-16 21:53 | 50.85132 | -0.40827 | 9099 ft | 300 kts | 82° |
| 2026-04-16 21:53 | 50.85381 | -0.38651 | 8976 ft | 299 kts | 83° |
| 2026-04-16 21:53 | 50.85750 | -0.35406 | 8846 ft | 299 kts | 83° |
| 2026-04-16 21:53 | 50.86118 | -0.32152 | 8706 ft | 301 kts | 83° |
| 2026-04-16 21:54 | 50.86486 | -0.28896 | 8421 ft | 298 kts | 83° |
| 2026-04-16 21:54 | 50.86850 | -0.25686 | 8063 ft | 297 kts | 83° |
| 2026-04-16 21:54 | 50.87214 | -0.22469 | 7721 ft | 295 kts | 83° |
| 2026-04-16 21:54 | 50.87572 | -0.19281 | 7392 ft | 294 kts | 83° |
| 2026-04-16 21:55 | 50.87925 | -0.16122 | 7168 ft | 287 kts | 83° |
| 2026-04-16 21:55 | 50.88269 | -0.13067 | 7043 ft | 276 kts | 83° |
| 2026-04-16 21:55 | 50.88605 | -0.10094 | 6877 ft | 266 kts | 83° |
| 2026-04-16 21:55 | 50.89122 | -0.07297 | 6581 ft | 272 kts | 65° |
| 2026-04-16 21:56 | 50.90313 | -0.04931 | 6022 ft | 280 kts | 36° |
| 2026-04-16 21:56 | 50.92058 | -0.03649 | 5559 ft | 275 kts | 7° |
| 2026-04-16 21:56 | 50.93955 | -0.03342 | 5127 ft | 274 kts | 1° |
| 2026-04-16 21:56 | 50.95857 | -0.03108 | 4679 ft | 275 kts | 1° |
| 2026-04-16 21:57 | 50.97772 | -0.02872 | 4229 ft | 275 kts | 1° |
| 2026-04-16 21:57 | 50.99682 | -0.02636 | 3783 ft | 276 kts | 1° |
| 2026-04-16 21:57 | 51.01590 | -0.02398 | 3322 ft | 276 kts | 1° |
| 2026-04-16 21:57 | 51.03499 | -0.02159 | 3023 ft | 270 kts | 1° |
| 2026-04-16 21:58 | 51.05311 | -0.01922 | 2768 ft | 253 kts | 1° |
| 2026-04-16 21:58 | 51.07015 | -0.01697 | 2587 ft | 235 kts | 1° |
| 2026-04-16 21:58 | 51.08408 | -0.01437 | 2427 ft | 225 kts | 12° |
| 2026-04-16 21:58 | 51.09704 | -0.00204 | 2265 ft | 214 kts | 49° |
| 2026-04-16 21:59 | 51.10355 | 0.01845 | 1988 ft | 205 kts | 74° |
| 2026-04-16 21:59 | 51.10756 | 0.04030 | 1790 ft | 202 kts | 72° |
| 2026-04-16 21:59 | 51.11584 | 0.05766 | 1609 ft | 199 kts | 31° |
| 2026-04-16 21:59 | 51.12886 | 0.06268 | 1677 ft | 192 kts | 351° |
| 2026-04-16 22:00 | 51.14201 | 0.05901 | 1817 ft | 187 kts | 342° |
| 2026-04-16 22:00 | 51.15413 | 0.05389 | 1846 ft | 173 kts | 328° |
| 2026-04-16 22:00 | 51.16170 | 0.04102 | 1862 ft | 156 kts | 285° |
| 2026-04-16 22:00 | 51.16399 | 0.02500 | 1884 ft | 138 kts | 273° |
| 2026-04-16 22:01 | 51.16520 | 0.01014 | 1888 ft | 133 kts | 271° |
| 2026-04-16 22:01 | 51.16625 | -0.00436 | 2014 ft | 130 kts | 271° |
| 2026-04-16 22:01 | 51.16731 | -0.01871 | 2015 ft | 130 kts | 271° |
| 2026-04-16 22:01 | 51.16839 | -0.03299 | 2012 ft | 130 kts | 271° |
| 2026-04-16 22:02 | 51.16736 | -0.04702 | 1848 ft | 128 kts | 252° |
| 2026-04-16 22:02 | 51.16557 | -0.06110 | 1671 ft | 130 kts | 255° |
| 2026-04-16 22:02 | 51.16375 | -0.07532 | 1492 ft | 129 kts | 255° |
| 2026-04-16 22:02 | 51.16190 | -0.08932 | 1312 ft | 129 kts | 255° |
| 2026-04-16 22:03 | 51.16002 | -0.10329 | 1126 ft | 130 kts | 255° |
| 2026-04-16 22:03 | 51.15791 | -0.11882 | 927 ft | 132 kts | 255° |
| 2026-04-16 22:03 | 51.15610 | -0.13217 | 754 ft | 133 kts | 256° |
| 2026-04-16 22:03 | 51.15404 | -0.14723 | 578 ft | 134 kts | 256° |
| 2026-04-16 22:04 | 51.15198 | -0.16231 | 376 ft | 135 kts | 256° |
| 2026-04-16 22:04 | 51.15038 | -0.17422 | 238 ft | 135 kts | 256° |
| 2026-04-16 22:04 | 51.14853 | -0.18733 | 211 ft | 95 kts | 257° |
| 2026-04-16 22:04 | 51.14751 | -0.19494 | 216 ft | 47 kts | 257° |
| 2026-04-16 22:05 | 51.14703 | -0.19933 | 204 ft | 39 kts | 270° |
| 2026-04-16 22:05 | 51.14743 | -0.20291 | 212 ft | 27 kts | 283° |
| 2026-04-16 22:05 | 51.14778 | -0.20541 | 205 ft | 17 kts | 282° |
| 2026-04-16 22:05 | 51.14858 | -0.20628 | 212 ft | 16 kts | 36° |
| 2026-04-16 22:06 | 51.14893 | -0.20455 | 205 ft | 18 kts | 77° |
| 2026-04-16 22:06 | 51.14954 | -0.20008 | 203 ft | 22 kts | 77° |
| 2026-04-16 22:06 | 51.14976 | -0.19843 | 211 ft | 23 kts | 78° |
| 2026-04-16 22:07 | 51.15011 | -0.19590 | 204 ft | 25 kts | 78° |
| 2026-04-16 22:07 | 51.15042 | -0.19371 | 211 ft | 21 kts | 77° |
| 2026-04-16 22:07 | 51.15075 | -0.19134 | 214 ft | 23 kts | 78° |
| 2026-04-16 22:07 | 51.15110 | -0.18873 | 208 ft | 25 kts | 78° |
| 2026-04-16 22:08 | 51.15149 | -0.18577 | 208 ft | 27 kts | 78° |
| 2026-04-16 22:08 | 51.15183 | -0.18346 | 205 ft | 13 kts | 77° |
| 2026-04-16 22:08 | 51.15194 | -0.18212 | 206 ft | 11 kts | 79° |
| 2026-04-16 22:08 | 51.15231 | -0.18095 | 204 ft | 16 kts | 27° |
| 2026-04-16 22:09 | 51.15331 | -0.18124 | 204 ft | 14 kts | 347° |
| 2026-04-16 22:09 | 51.15421 | -0.18156 | 204 ft | 13 kts | 347° |
| 2026-04-16 22:09 | 51.15486 | -0.18183 | 204 ft | 6 kts | 340° |
| 2026-04-16 22:09 | 51.15527 | -0.18202 | 204 ft | 10 kts | 347° |
| 2026-04-16 22:10 | 51.15597 | -0.18227 | 204 ft | 11 kts | 347° |
| 2026-04-16 22:10 | 51.15668 | -0.18188 | 204 ft | 16 kts | 72° |
| 2026-04-16 22:10 | 51.15691 | -0.18017 | 207 ft | 16 kts | 77° |
| 2026-04-16 22:10 | 51.15715 | -0.17848 | 204 ft | 16 kts | 77° |
| 2026-04-16 22:11 | 51.15731 | -0.17730 | 204 ft | 8 kts | 77° |
| 2026-04-16 22:11 | 51.15771 | -0.17716 | 204 ft | 6 kts | 352° |
| 2026-04-16 22:11 | 51.15808 | -0.17728 | 212 ft | 5 kts | 346° |
| 2026-04-16 22:11 | 51.15827 | -0.17735 | 207 ft | 0 kts | 347° |